Time,TemperatureF,DewpointF,PressureIn,WindDirection,WindDirectionDegrees,WindSpeedMPH,WindSpeedGustMPH,Humidity,HourlyPrecipIn,Conditions,Clouds,dailyrainin,SolarRadiationWatts/m^2,SoftwareType,DateUTC
2013-04-17 00:00:00,64.8,58.1,30.05,SSW,196,2.0,2.0,79,0.00,,,0.00,0,WeatherCatV1.15B25,2013-04-17 04:00:00,
2013-04-17 00:01:00,64.7,57.3,30.05,SSW,196,3.0,3.0,77,0.00,,,0.00,0,WeatherCatV1.15B25,2013-04-17 04:01:00,
2013-04-17 00:06:00,65.0,57.6,30.05,WSW,246,3.0,4.0,77,0.00,,,0.00,0,WeatherCatV1.15B25,2013-04-17 04:06:00,
2013-04-17 00:11:00,65.3,57.5,30.05,SSW,206,5.0,6.0,76,0.00,,,0.00,0,WeatherCatV1.15B25,2013-04-17 04:11:00,
2013-04-17 00:16:00,65.5,57.7,30.05,SSW,193,2.0,6.0,76,0.00,,,0.00,0,WeatherCatV1.15B25,2013-04-17 04:16:00,
2013-04-17 00:21:00,65.8,58.7,30.05,WSW,250,7.0,11.0,78,0.00,,,0.00,0,WeatherCatV1.15B25,2013-04-17 04:21:00,
2013-04-17 00:26:00,67.1,58.5,30.05,SW,232,12.0,19.0,74,0.00,,,0.00,0,WeatherCatV1.15B25,2013-04-17 04:26:00,
2013-04-17 00:31:00,67.1,58.5,30.07,West,272,6.0,17.0,74,0.00,,,0.00,0,WeatherCatV1.15B25,2013-04-17 04:31:00,
2013-04-17 00:36:00,66.0,60.0,30.07,WNW,292,14.0,21.0,81,0.00,,,0.00,0,WeatherCatV1.15B25,2013-04-17 04:36:00,
2013-04-17 00:41:00,64.7,61.1,30.07,WSW,246,6.0,7.0,88,0.00,,,0.01,0,WeatherCatV1.15B25,2013-04-17 04:41:00,
2013-04-17 00:46:00,64.0,60.7,30.08,WSW,254,6.0,10.0,89,0.13,,,0.02,0,WeatherCatV1.15B25,2013-04-17 04:46:00,
2013-04-17 00:51:00,63.5,61.1,30.08,WSW,247,6.0,7.0,92,0.10,,,0.03,0,WeatherCatV1.15B25,2013-04-17 04:51:00,
2013-04-17 00:56:00,63.5,61.1,30.08,West,270,1.0,5.0,92,0.07,,,0.03,0,WeatherCatV1.15B25,2013-04-17 04:56:00,
2013-04-17 01:01:00,63.5,61.1,30.08,West,270,1.0,2.0,92,0.04,,,0.03,0,WeatherCatV1.15B25,2013-04-17 05:01:00,
2013-04-17 01:06:00,63.4,61.0,30.08,South,176,2.0,2.0,92,0.00,,,0.03,0,WeatherCatV1.15B25,2013-04-17 05:06:00,
2013-04-17 01:11:00,63.2,61.1,30.08,SSE,157,0.0,1.0,93,0.00,,,0.04,0,WeatherCatV1.15B25,2013-04-17 05:11:00,
2013-04-17 01:16:00,63.1,61.3,30.08,SSE,157,0.0,3.0,94,0.00,,,0.04,0,WeatherCatV1.15B25,2013-04-17 05:16:00,
2013-04-17 01:21:00,63.1,61.3,30.08,SSE,157,0.0,0.0,94,0.00,,,0.04,0,WeatherCatV1.15B25,2013-04-17 05:21:00,
2013-04-17 01:26:00,63.1,61.3,30.08,SSE,167,3.0,5.0,94,0.00,,,0.04,0,WeatherCatV1.15B25,2013-04-17 05:26:00,
2013-04-17 01:31:00,63.1,61.6,30.08,SSE,167,2.0,3.0,95,0.00,,,0.05,0,WeatherCatV1.15B25,2013-04-17 05:31:00,
2013-04-17 01:36:00,63.1,61.6,30.08,SSE,167,0.0,2.0,95,0.08,,,0.06,0,WeatherCatV1.15B25,2013-04-17 05:36:00,
2013-04-17 01:39:00,63.1,61.9,30.08,SSE,167,0.0,3.0,96,0.08,,,0.06,0,WeatherCatV1.15B25,2013-04-17 05:39:00,
2013-04-17 01:47:00,62.9,61.7,30.07,SE,131,2.0,10.0,96,0.07,,,0.07,0,WeatherCatV1.15B25,2013-04-17 05:47:00,
2013-04-17 01:52:00,62.9,61.7,30.07,SE,131,0.0,0.0,96,0.07,,,0.07,0,WeatherCatV1.15B25,2013-04-17 05:52:00,
2013-04-17 01:57:00,62.7,61.5,30.07,SSE,151,0.0,0.0,96,0.04,,,0.07,0,WeatherCatV1.15B25,2013-04-17 05:57:00,
2013-04-17 02:02:00,62.6,61.4,30.05,SE,145,1.0,3.0,96,0.00,,,0.07,0,WeatherCatV1.15B25,2013-04-17 06:02:00,
2013-04-17 02:07:00,62.6,61.4,30.05,SE,145,0.0,0.0,96,0.00,,,0.07,0,WeatherCatV1.15B25,2013-04-17 06:07:00,
2013-04-17 02:12:00,62.7,61.5,30.05,SE,145,0.0,0.0,96,0.00,,,0.07,0,WeatherCatV1.15B25,2013-04-17 06:12:00,
2013-04-17 02:17:00,62.7,61.5,30.05,SE,145,0.0,0.0,96,0.00,,,0.07,0,WeatherCatV1.15B25,2013-04-17 06:17:00,
2013-04-17 02:22:00,62.6,61.7,30.05,SE,145,0.0,0.0,97,0.00,,,0.07,0,WeatherCatV1.15B25,2013-04-17 06:22:00,
2013-04-17 02:27:00,62.6,61.7,30.05,SE,145,0.0,0.0,97,0.00,,,0.07,0,WeatherCatV1.15B25,2013-04-17 06:27:00,
2013-04-17 02:32:00,62.6,61.7,30.03,SE,145,0.0,0.0,97,0.00,,,0.07,0,WeatherCatV1.15B25,2013-04-17 06:32:00,
2013-04-17 02:37:00,62.6,61.7,30.03,SE,145,0.0,0.0,97,0.00,,,0.07,0,WeatherCatV1.15B25,2013-04-17 06:37:00,
2013-04-17 02:42:00,62.6,61.7,30.03,SE,145,0.0,0.0,97,0.00,,,0.07,0,WeatherCatV1.15B25,2013-04-17 06:42:00,
2013-04-17 02:47:00,62.4,61.8,30.03,SE,145,0.0,0.0,98,0.00,,,0.07,0,WeatherCatV1.15B25,2013-04-17 06:47:00,
2013-04-17 02:52:00,62.3,61.7,30.03,SE,145,0.0,0.0,98,0.00,,,0.07,0,WeatherCatV1.15B25,2013-04-17 06:52:00,
2013-04-17 02:57:00,62.3,61.7,30.03,SE,145,0.0,0.0,98,0.00,,,0.07,0,WeatherCatV1.15B25,2013-04-17 06:57:00,
2013-04-17 03:02:00,62.1,61.5,30.04,SE,145,0.0,0.0,98,0.00,,,0.07,0,WeatherCatV1.15B25,2013-04-17 07:02:00,
2013-04-17 03:07:00,62.0,61.4,30.04,SE,145,0.0,2.0,98,0.00,,,0.07,0,WeatherCatV1.15B25,2013-04-17 07:07:00,
2013-04-17 03:12:00,62.0,61.4,30.04,SE,145,0.0,1.0,98,0.00,,,0.07,0,WeatherCatV1.15B25,2013-04-17 07:12:00,
2013-04-17 03:17:00,62.1,61.5,30.03,SE,145,0.0,1.0,98,0.00,,,0.07,0,WeatherCatV1.15B25,2013-04-17 07:17:00,
2013-04-17 03:22:00,62.0,61.4,30.03,SE,145,1.0,2.0,98,0.00,,,0.07,0,WeatherCatV1.15B25,2013-04-17 07:22:00,
2013-04-17 03:27:00,62.1,60.9,30.03,SE,145,0.0,0.0,96,0.00,,,0.07,0,WeatherCatV1.15B25,2013-04-17 07:27:00,
2013-04-17 03:32:00,62.3,61.1,30.02,SE,145,0.0,0.0,96,0.00,,,0.07,0,WeatherCatV1.15B25,2013-04-17 07:32:00,
2013-04-17 03:37:00,62.1,60.9,30.02,SE,145,0.0,0.0,96,0.00,,,0.07,0,WeatherCatV1.15B25,2013-04-17 07:37:00,
2013-04-17 03:42:00,61.8,60.9,30.02,SE,145,0.0,0.0,97,0.00,,,0.07,0,WeatherCatV1.15B25,2013-04-17 07:42:00,
2013-04-17 03:47:00,61.6,60.7,30.02,SE,145,0.0,2.0,97,0.00,,,0.07,0,WeatherCatV1.15B25,2013-04-17 07:47:00,
2013-04-17 03:52:00,61.5,60.6,30.02,SE,145,1.0,2.0,97,0.00,,,0.07,0,WeatherCatV1.15B25,2013-04-17 07:52:00,
2013-04-17 03:57:00,61.5,60.6,30.02,SSW,192,2.0,2.0,97,0.00,,,0.07,0,WeatherCatV1.15B25,2013-04-17 07:57:00,
2013-04-17 04:02:00,61.5,60.6,30.03,SSW,192,2.0,2.0,97,0.00,,,0.07,0,WeatherCatV1.15B25,2013-04-17 08:02:00,
2013-04-17 04:07:00,61.3,60.4,30.03,SSW,192,2.0,3.0,97,0.00,,,0.07,0,WeatherCatV1.15B25,2013-04-17 08:07:00,
2013-04-17 04:12:00,61.3,60.7,30.03,SSW,192,2.0,2.0,98,0.00,,,0.07,0,WeatherCatV1.15B25,2013-04-17 08:12:00,
2013-04-17 04:17:00,61.3,60.4,30.03,SSW,192,3.0,3.0,97,0.00,,,0.07,0,WeatherCatV1.15B25,2013-04-17 08:17:00,
2013-04-17 04:22:00,61.3,60.4,30.03,SSW,192,0.0,2.0,97,0.00,,,0.07,0,WeatherCatV1.15B25,2013-04-17 08:22:00,
2013-04-17 04:27:00,61.2,60.3,30.03,SSW,192,0.0,1.0,97,0.00,,,0.07,0,WeatherCatV1.15B25,2013-04-17 08:27:00,
2013-04-17 04:32:00,61.0,60.1,30.03,SSW,192,0.0,0.0,97,0.00,,,0.07,0,WeatherCatV1.15B25,2013-04-17 08:32:00,
2013-04-17 04:37:00,60.9,60.3,30.03,SW,227,1.0,3.0,98,0.00,,,0.07,0,WeatherCatV1.15B25,2013-04-17 08:37:00,
2013-04-17 04:42:00,60.7,60.1,30.03,SW,227,0.0,2.0,98,0.00,,,0.07,0,WeatherCatV1.15B25,2013-04-17 08:42:00,
2013-04-17 04:47:00,60.5,59.9,30.04,SW,227,0.0,2.0,98,0.00,,,0.07,0,WeatherCatV1.15B25,2013-04-17 08:47:00,
2013-04-17 04:52:00,60.4,59.8,30.04,SW,227,1.0,2.0,98,0.00,,,0.07,0,WeatherCatV1.15B25,2013-04-17 08:52:00,
2013-04-17 04:57:00,60.5,59.9,30.04,SW,227,0.0,0.0,98,0.00,,,0.07,0,WeatherCatV1.15B25,2013-04-17 08:57:00,
2013-04-17 05:02:00,60.9,60.3,30.05,SW,227,0.0,0.0,98,0.00,,,0.07,0,WeatherCatV1.15B25,2013-04-17 09:02:00,
2013-04-17 05:07:00,61.0,60.1,30.05,SW,227,0.0,0.0,97,0.00,,,0.07,0,WeatherCatV1.15B25,2013-04-17 09:07:00,
2013-04-17 05:12:00,61.0,60.1,30.05,SW,227,0.0,0.0,97,0.00,,,0.07,0,WeatherCatV1.15B25,2013-04-17 09:12:00,
2013-04-17 05:17:00,61.0,60.1,30.05,SW,227,0.0,0.0,97,0.00,,,0.07,0,WeatherCatV1.15B25,2013-04-17 09:17:00,
2013-04-17 05:22:00,60.9,60.0,30.05,SW,227,0.0,0.0,97,0.00,,,0.07,0,WeatherCatV1.15B25,2013-04-17 09:22:00,
2013-04-17 05:27:00,60.4,59.5,30.05,SW,227,0.0,0.0,97,0.00,,,0.07,0,WeatherCatV1.15B25,2013-04-17 09:27:00,
2013-04-17 05:32:00,59.8,58.9,30.06,SW,227,0.0,0.0,97,0.00,,,0.07,0,WeatherCatV1.15B25,2013-04-17 09:32:00,
2013-04-17 05:37:00,59.6,58.7,30.06,SW,227,0.0,0.0,97,0.00,,,0.07,0,WeatherCatV1.15B25,2013-04-17 09:37:00,
2013-04-17 05:42:00,59.6,59.0,30.06,SW,227,0.0,0.0,98,0.00,,,0.07,0,WeatherCatV1.15B25,2013-04-17 09:42:00,
2013-04-17 05:47:00,59.6,59.0,30.07,SW,227,0.0,0.0,98,0.00,,,0.07,0,WeatherCatV1.15B25,2013-04-17 09:47:00,
2013-04-17 05:52:00,59.3,58.7,30.07,SW,227,0.0,0.0,98,0.00,,,0.07,0,WeatherCatV1.15B25,2013-04-17 09:52:00,
2013-04-17 05:57:00,58.7,58.1,30.07,SW,227,0.0,0.0,98,0.00,,,0.07,0,WeatherCatV1.15B25,2013-04-17 09:57:00,
2013-04-17 06:02:00,58.4,57.8,30.07,SW,227,0.0,0.0,98,0.00,,,0.07,0,WeatherCatV1.15B25,2013-04-17 10:02:00,
2013-04-17 06:07:00,58.4,57.8,30.07,SW,227,0.0,0.0,98,0.00,,,0.07,0,WeatherCatV1.15B25,2013-04-17 10:07:00,
2013-04-17 06:12:00,58.4,57.8,30.07,SW,227,0.0,0.0,98,0.00,,,0.07,0,WeatherCatV1.15B25,2013-04-17 10:12:00,
2013-04-17 06:17:00,58.6,58.0,30.07,SW,227,0.0,0.0,98,0.00,,,0.07,0,WeatherCatV1.15B25,2013-04-17 10:17:00,
2013-04-17 06:22:00,58.6,58.3,30.07,SW,229,0.0,2.0,99,0.00,,,0.07,0,WeatherCatV1.15B25,2013-04-17 10:22:00,
2013-04-17 06:27:00,58.6,58.3,30.07,SW,229,0.0,0.0,99,0.00,,,0.07,0,WeatherCatV1.15B25,2013-04-17 10:27:00,
2013-04-17 06:32:00,58.6,58.3,30.07,SW,229,0.0,0.0,99,0.00,,,0.07,5,WeatherCatV1.15B25,2013-04-17 10:32:00,
2013-04-17 06:37:00,58.6,58.3,30.07,SW,229,0.0,0.0,99,0.00,,,0.07,12,WeatherCatV1.15B25,2013-04-17 10:37:00,
2013-04-17 06:42:00,58.3,58.0,30.07,SW,229,0.0,0.0,99,0.00,,,0.07,16,WeatherCatV1.15B25,2013-04-17 10:42:00,
2013-04-17 06:47:00,58.1,57.8,30.08,SW,229,0.0,0.0,99,0.00,,,0.07,21,WeatherCatV1.15B25,2013-04-17 10:47:00,
2013-04-17 06:52:00,58.3,58.0,30.08,SW,229,0.0,0.0,99,0.00,,,0.07,28,WeatherCatV1.15B25,2013-04-17 10:52:00,
2013-04-17 06:57:00,58.6,58.3,30.08,SW,229,0.0,0.0,99,0.00,,,0.07,33,WeatherCatV1.15B25,2013-04-17 10:57:00,
2013-04-17 07:02:00,58.7,58.4,30.09,SW,229,0.0,0.0,99,0.00,,,0.07,40,WeatherCatV1.15B25,2013-04-17 11:02:00,
2013-04-17 07:07:00,58.7,58.4,30.09,SE,126,0.0,3.0,99,0.00,,,0.07,70,WeatherCatV1.15B25,2013-04-17 11:07:00,
2013-04-17 07:12:00,59.0,58.7,30.09,SE,126,0.0,0.0,99,0.00,,,0.07,76,WeatherCatV1.15B25,2013-04-17 11:12:00,
2013-04-17 07:17:00,59.5,59.2,30.09,SE,126,0.0,0.0,99,0.00,,,0.07,79,WeatherCatV1.15B25,2013-04-17 11:17:00,
2013-04-17 07:22:00,59.6,59.3,30.09,SE,126,0.0,0.0,99,0.00,,,0.07,83,WeatherCatV1.15B25,2013-04-17 11:22:00,
2013-04-17 07:27:00,60.1,59.5,30.09,SE,126,0.0,0.0,98,0.00,,,0.07,90,WeatherCatV1.15B25,2013-04-17 11:27:00,
2013-04-17 07:32:00,60.2,59.6,30.09,SE,126,0.0,0.0,98,0.00,,,0.07,91,WeatherCatV1.15B25,2013-04-17 11:32:00,
2013-04-17 07:37:00,60.2,59.9,30.09,SE,126,0.0,1.0,99,0.00,,,0.07,99,WeatherCatV1.15B25,2013-04-17 11:37:00,
2013-04-17 07:42:00,60.2,59.9,30.09,ENE,65,3.0,5.0,99,0.00,,,0.07,93,WeatherCatV1.15B25,2013-04-17 11:42:00,
2013-04-17 07:47:00,60.2,59.9,30.10,NE,48,0.0,0.0,99,0.00,,,0.07,116,WeatherCatV1.15B25,2013-04-17 11:47:00,
2013-04-17 07:52:00,60.4,60.1,30.10,NE,47,0.0,3.0,99,0.00,,,0.07,183,WeatherCatV1.15B25,2013-04-17 11:52:00,
2013-04-17 07:57:00,60.5,60.2,30.10,North,356,2.0,4.0,99,0.00,,,0.07,234,WeatherCatV1.15B25,2013-04-17 11:57:00,
2013-04-17 08:02:00,61.0,60.4,30.10,North,356,0.0,0.0,98,0.00,,,0.07,227,WeatherCatV1.15B25,2013-04-17 12:02:00,
2013-04-17 08:07:00,61.3,60.7,30.10,North,356,0.0,0.0,98,0.00,,,0.07,222,WeatherCatV1.15B25,2013-04-17 12:07:00,
2013-04-17 08:12:00,62.0,61.1,30.10,North,356,0.0,0.0,97,0.00,,,0.07,238,WeatherCatV1.15B25,2013-04-17 12:12:00,
2013-04-17 08:17:00,62.4,61.2,30.10,North,356,0.0,0.0,96,0.00,,,0.07,227,WeatherCatV1.15B25,2013-04-17 12:17:00,
2013-04-17 08:22:00,62.7,60.9,30.10,North,356,0.0,0.0,94,0.00,,,0.07,220,WeatherCatV1.15B25,2013-04-17 12:22:00,
2013-04-17 08:27:00,63.1,61.0,30.10,North,356,0.0,0.0,93,0.00,,,0.07,215,WeatherCatV1.15B25,2013-04-17 12:27:00,
2013-04-17 08:32:00,63.4,60.7,30.10,North,356,0.0,0.0,91,0.00,,,0.07,215,WeatherCatV1.15B25,2013-04-17 12:32:00,
2013-04-17 08:37:00,63.5,60.8,30.10,North,356,0.0,0.0,91,0.00,,,0.07,259,WeatherCatV1.15B25,2013-04-17 12:37:00,
2013-04-17 08:42:00,64.2,61.5,30.10,North,356,0.0,0.0,91,0.00,,,0.07,269,WeatherCatV1.15B25,2013-04-17 12:42:00,
2013-04-17 08:47:00,65.0,62.3,30.10,North,356,0.0,0.0,91,0.00,,,0.07,292,WeatherCatV1.15B25,2013-04-17 12:47:00,
2013-04-17 08:52:00,65.8,62.5,30.10,North,356,0.0,0.0,89,0.00,,,0.07,297,WeatherCatV1.15B25,2013-04-17 12:52:00,
2013-04-17 08:57:00,66.6,62.6,30.10,North,356,0.0,0.0,87,0.00,,,0.07,236,WeatherCatV1.15B25,2013-04-17 12:57:00,
2013-04-17 09:02:00,66.6,61.3,30.09,North,356,0.0,0.0,83,0.00,,,0.07,304,WeatherCatV1.15B25,2013-04-17 13:02:00,
2013-04-17 09:07:00,66.8,61.5,30.09,North,356,0.0,0.0,83,0.00,,,0.07,334,WeatherCatV1.15B25,2013-04-17 13:07:00,
2013-04-17 09:12:00,67.6,62.6,30.09,North,356,0.0,0.0,84,0.00,,,0.07,341,WeatherCatV1.15B25,2013-04-17 13:12:00,
2013-04-17 09:17:00,68.3,61.9,30.09,North,356,0.0,0.0,80,0.00,,,0.07,354,WeatherCatV1.15B25,2013-04-17 13:17:00,
2013-04-17 09:22:00,68.3,61.5,30.09,North,356,0.0,0.0,79,0.00,,,0.07,396,WeatherCatV1.15B25,2013-04-17 13:22:00,
2013-04-17 09:27:00,68.4,61.6,30.09,ENE,78,0.0,1.0,79,0.00,,,0.07,459,WeatherCatV1.15B25,2013-04-17 13:27:00,
2013-04-17 09:32:00,68.3,61.9,30.09,ENE,78,2.0,2.0,80,0.00,,,0.07,463,WeatherCatV1.15B25,2013-04-17 13:32:00,
2013-04-17 09:37:00,67.8,61.7,30.09,ENE,78,3.0,5.0,81,0.00,,,0.07,428,WeatherCatV1.15B25,2013-04-17 13:37:00,
2013-04-17 09:42:00,67.6,61.6,30.09,ENE,78,2.0,4.0,81,0.00,,,0.07,406,WeatherCatV1.15B25,2013-04-17 13:42:00,
2013-04-17 09:47:00,67.9,61.5,30.10,NE,52,0.0,2.0,80,0.00,,,0.07,371,WeatherCatV1.15B25,2013-04-17 13:47:00,
2013-04-17 09:52:00,68.6,61.5,30.10,East,96,1.0,5.0,78,0.00,,,0.07,408,WeatherCatV1.15B25,2013-04-17 13:52:00,
2013-04-17 09:57:00,68.8,62.0,30.10,ESE,121,3.0,7.0,79,0.00,,,0.07,563,WeatherCatV1.15B25,2013-04-17 13:57:00,
2013-04-17 10:02:00,68.9,61.7,30.10,ENE,64,1.0,1.0,78,0.00,,,0.07,301,WeatherCatV1.15B25,2013-04-17 14:02:00,
2013-04-17 10:07:00,68.6,60.7,30.10,NE,48,0.0,3.0,76,0.00,,,0.07,204,WeatherCatV1.15B25,2013-04-17 14:07:00,
2013-04-17 10:12:00,68.6,60.7,30.10,NE,45,0.0,7.0,76,0.00,,,0.07,209,WeatherCatV1.15B25,2013-04-17 14:12:00,
2013-04-17 10:17:00,68.4,59.8,30.10,NNE,32,2.0,6.0,74,0.00,,,0.07,151,WeatherCatV1.15B25,2013-04-17 14:17:00,
2013-04-17 10:22:00,67.9,60.0,30.10,NE,56,0.0,5.0,76,0.00,,,0.07,172,WeatherCatV1.15B25,2013-04-17 14:22:00,
2013-04-17 10:27:00,68.1,59.5,30.10,NNW,335,3.0,5.0,74,0.00,,,0.07,132,WeatherCatV1.15B25,2013-04-17 14:27:00,
2013-04-17 10:32:00,67.9,58.9,30.10,North,350,1.0,6.0,73,0.00,,,0.07,199,WeatherCatV1.15B25,2013-04-17 14:32:00,
2013-04-17 10:37:00,68.3,59.7,30.10,North,354,1.0,5.0,74,0.00,,,0.07,267,WeatherCatV1.15B25,2013-04-17 14:37:00,
2013-04-17 10:42:00,68.1,59.5,30.10,North,11,1.0,3.0,74,0.00,,,0.07,260,WeatherCatV1.15B25,2013-04-17 14:42:00,
2013-04-17 10:47:00,68.1,59.9,30.11,NE,52,5.0,6.0,75,0.00,,,0.07,271,WeatherCatV1.15B25,2013-04-17 14:47:00,
2013-04-17 10:52:00,68.1,59.5,30.11,North,8,2.0,5.0,74,0.00,,,0.07,227,WeatherCatV1.15B25,2013-04-17 14:52:00,
2013-04-17 10:57:00,68.1,59.5,30.11,NNE,30,0.0,7.0,74,0.00,,,0.07,245,WeatherCatV1.15B25,2013-04-17 14:57:00,
2013-04-17 11:02:00,68.3,60.1,30.11,NNW,340,11.0,12.0,75,0.00,,,0.07,155,WeatherCatV1.15B25,2013-04-17 15:02:00,
2013-04-17 11:07:00,66.3,59.9,30.11,NNW,339,6.0,16.0,80,0.00,,,0.07,158,WeatherCatV1.15B25,2013-04-17 15:07:00,
2013-04-17 11:12:00,65.3,60.0,30.11,North,10,5.0,10.0,83,0.00,,,0.07,123,WeatherCatV1.15B25,2013-04-17 15:12:00,
2013-04-17 11:17:00,64.8,60.2,30.12,North,354,7.0,11.0,85,0.00,,,0.07,132,WeatherCatV1.15B25,2013-04-17 15:17:00,
2013-04-17 11:22:00,64.2,58.6,30.12,North,350,13.0,13.0,82,0.00,,,0.07,151,WeatherCatV1.15B25,2013-04-17 15:22:00,
2013-04-17 11:27:00,63.5,57.9,30.12,NW,312,9.0,14.0,82,0.00,,,0.07,113,WeatherCatV1.15B25,2013-04-17 15:27:00,
2013-04-17 11:32:00,63.2,57.9,30.12,NNW,333,7.0,13.0,83,0.00,,,0.07,143,WeatherCatV1.15B25,2013-04-17 15:32:00,
2013-04-17 11:37:00,63.2,58.3,30.12,North,352,10.0,13.0,84,0.00,,,0.07,174,WeatherCatV1.15B25,2013-04-17 15:37:00,
2013-04-17 11:42:00,63.1,58.2,30.12,North,352,7.0,10.0,84,0.00,,,0.07,181,WeatherCatV1.15B25,2013-04-17 15:42:00,
2013-04-17 11:47:00,62.9,57.7,30.13,NNW,333,12.0,14.0,83,0.00,,,0.07,185,WeatherCatV1.15B25,2013-04-17 15:47:00,
2013-04-17 11:52:00,62.7,57.8,30.13,North,359,12.0,14.0,84,0.00,,,0.07,188,WeatherCatV1.15B25,2013-04-17 15:52:00,
2013-04-17 11:57:00,62.6,57.4,30.13,North,352,10.0,14.0,83,0.00,,,0.07,179,WeatherCatV1.15B25,2013-04-17 15:57:00,
2013-04-17 12:02:00,62.1,57.2,30.14,North,359,7.0,18.0,84,0.00,,,0.07,100,WeatherCatV1.15B25,2013-04-17 16:02:00,
2013-04-17 12:07:00,61.6,56.4,30.14,North,350,9.0,13.0,83,0.00,,,0.07,127,WeatherCatV1.15B25,2013-04-17 16:07:00,
2013-04-17 12:12:00,61.5,56.3,30.14,North,349,10.0,10.0,83,0.00,,,0.07,150,WeatherCatV1.15B25,2013-04-17 16:12:00,
2013-04-17 12:17:00,61.5,56.3,30.14,North,350,3.0,12.0,83,0.00,,,0.07,155,WeatherCatV1.15B25,2013-04-17 16:17:00,
2013-04-17 12:22:00,61.2,55.7,30.14,North,0,8.0,12.0,82,0.00,,,0.07,278,WeatherCatV1.15B25,2013-04-17 16:22:00,
2013-04-17 12:27:00,61.0,55.5,30.14,NNW,346,6.0,14.0,82,0.00,,,0.07,315,WeatherCatV1.15B25,2013-04-17 16:27:00,
2013-04-17 12:32:00,61.2,55.7,30.14,NNE,17,8.0,9.0,82,0.00,,,0.07,239,WeatherCatV1.15B25,2013-04-17 16:32:00,
2013-04-17 12:37:00,61.2,54.6,30.14,NNW,343,6.0,13.0,79,0.00,,,0.07,318,WeatherCatV1.15B25,2013-04-17 16:37:00,
2013-04-17 12:42:00,61.0,54.8,30.14,North,359,5.0,12.0,80,0.00,,,0.07,311,WeatherCatV1.15B25,2013-04-17 16:42:00,
2013-04-17 12:47:00,60.9,54.0,30.14,North,10,10.0,13.0,78,0.00,,,0.07,290,WeatherCatV1.15B25,2013-04-17 16:47:00,
2013-04-17 12:52:00,60.7,54.1,30.14,North,353,10.0,16.0,79,0.00,,,0.07,320,WeatherCatV1.15B25,2013-04-17 16:52:00,
2013-04-17 12:57:00,60.5,53.6,30.14,North,1,10.0,13.0,78,0.00,,,0.07,285,WeatherCatV1.15B25,2013-04-17 16:57:00,
2013-04-17 13:02:00,60.7,53.4,30.14,NE,48,6.0,11.0,77,0.00,,,0.07,338,WeatherCatV1.15B25,2013-04-17 17:02:00,
2013-04-17 13:07:00,61.0,53.4,30.14,North,356,6.0,10.0,76,0.00,,,0.07,299,WeatherCatV1.15B25,2013-04-17 17:07:00,
2013-04-17 13:12:00,61.2,53.6,30.14,NNE,18,8.0,8.0,76,0.00,,,0.07,274,WeatherCatV1.15B25,2013-04-17 17:12:00,
2013-04-17 13:17:00,60.9,53.6,30.14,NNW,342,7.0,12.0,77,0.00,,,0.07,343,WeatherCatV1.15B25,2013-04-17 17:17:00,
2013-04-17 13:22:00,61.0,53.4,30.14,NNE,13,2.0,10.0,76,0.00,,,0.07,447,WeatherCatV1.15B25,2013-04-17 17:22:00,
2013-04-17 13:27:00,61.2,53.9,30.14,NNW,337,13.0,13.0,77,0.00,,,0.07,521,WeatherCatV1.15B25,2013-04-17 17:27:00,
2013-04-17 13:32:00,61.6,54.3,30.14,NE,49,6.0,9.0,77,0.00,,,0.07,693,WeatherCatV1.15B25,2013-04-17 17:32:00,
2013-04-17 13:37:00,62.3,54.3,30.14,ENE,75,5.0,7.0,75,0.00,,,0.07,477,WeatherCatV1.15B25,2013-04-17 17:37:00,
2013-04-17 13:42:00,62.3,54.3,30.14,ENE,69,5.0,11.0,75,0.00,,,0.07,674,WeatherCatV1.15B25,2013-04-17 17:42:00,
2013-04-17 13:47:00,62.3,53.9,30.14,NE,51,0.0,11.0,74,0.00,,,0.07,493,WeatherCatV1.15B25,2013-04-17 17:47:00,
2013-04-17 13:52:00,62.4,53.6,30.14,NE,52,7.0,11.0,73,0.00,,,0.07,364,WeatherCatV1.15B25,2013-04-17 17:52:00,
2013-04-17 13:57:00,62.4,54.0,30.14,ENE,61,3.0,6.0,74,0.00,,,0.07,528,WeatherCatV1.15B25,2013-04-17 17:57:00,
2013-04-17 14:02:00,62.6,53.8,30.12,North,10,6.0,12.0,73,0.00,,,0.07,392,WeatherCatV1.15B25,2013-04-17 18:02:00,
2013-04-17 14:07:00,62.4,53.6,30.12,NNW,333,7.0,14.0,73,0.00,,,0.07,677,WeatherCatV1.15B25,2013-04-17 18:07:00,
2013-04-17 14:12:00,62.7,54.3,30.12,North,11,9.0,12.0,74,0.00,,,0.07,362,WeatherCatV1.15B25,2013-04-17 18:12:00,
2013-04-17 14:17:00,63.4,54.2,30.13,NE,42,8.0,8.0,72,0.00,,,0.07,457,WeatherCatV1.15B25,2013-04-17 18:17:00,
2013-04-17 14:22:00,64.0,54.4,30.13,North,354,10.0,10.0,71,0.00,,,0.07,644,WeatherCatV1.15B25,2013-04-17 18:22:00,
2013-04-17 14:27:00,63.9,54.3,30.13,NNE,27,2.0,7.0,71,0.00,,,0.07,408,WeatherCatV1.15B25,2013-04-17 18:27:00,
2013-04-17 14:32:00,64.2,54.6,30.13,North,350,8.0,10.0,71,0.00,,,0.07,435,WeatherCatV1.15B25,2013-04-17 18:32:00,
2013-04-17 14:37:00,63.5,53.5,30.13,NNW,346,0.0,12.0,70,0.00,,,0.07,378,WeatherCatV1.15B25,2013-04-17 18:37:00,
2013-04-17 14:42:00,63.7,54.5,30.13,NNE,25,8.0,9.0,72,0.00,,,0.07,355,WeatherCatV1.15B25,2013-04-17 18:42:00,
2013-04-17 14:47:00,63.9,54.7,30.13,North,0,7.0,12.0,72,0.00,,,0.07,361,WeatherCatV1.15B25,2013-04-17 18:47:00,
2013-04-17 14:52:00,63.7,53.7,30.13,NNE,13,1.0,10.0,70,0.00,,,0.07,394,WeatherCatV1.15B25,2013-04-17 18:52:00,
2013-04-17 14:57:00,63.7,54.9,30.13,North,350,4.0,10.0,73,0.00,,,0.07,512,WeatherCatV1.15B25,2013-04-17 18:57:00,
2013-04-17 15:02:00,64.8,55.2,30.12,NNE,18,3.0,7.0,71,0.00,,,0.07,512,WeatherCatV1.15B25,2013-04-17 19:02:00,
2013-04-17 15:07:00,65.2,55.2,30.12,North,1,5.0,14.0,70,0.00,,,0.07,894,WeatherCatV1.15B25,2013-04-17 19:07:00,
2013-04-17 15:12:00,65.6,55.1,30.12,NNE,28,10.0,10.0,69,0.00,,,0.07,882,WeatherCatV1.15B25,2013-04-17 19:12:00,
2013-04-17 15:17:00,64.8,54.8,30.11,North,4,5.0,11.0,70,0.00,,,0.07,435,WeatherCatV1.15B25,2013-04-17 19:17:00,
2013-04-17 15:22:00,65.2,55.2,30.11,NE,48,0.0,10.0,70,0.00,,,0.07,424,WeatherCatV1.15B25,2013-04-17 19:22:00,
2013-04-17 15:27:00,66.1,54.8,30.11,NNW,329,7.0,7.0,67,0.00,,,0.07,489,WeatherCatV1.15B25,2013-04-17 19:27:00,
2013-04-17 15:32:00,66.0,55.1,30.11,NE,42,3.0,12.0,68,0.00,,,0.07,401,WeatherCatV1.15B25,2013-04-17 19:32:00,
2013-04-17 15:37:00,65.8,54.5,30.11,North,353,7.0,8.0,67,0.00,,,0.07,405,WeatherCatV1.15B25,2013-04-17 19:37:00,
2013-04-17 15:42:00,65.8,54.9,30.11,NNW,339,6.0,8.0,68,0.00,,,0.07,628,WeatherCatV1.15B25,2013-04-17 19:42:00,
2013-04-17 15:47:00,65.5,54.7,30.11,NNE,31,2.0,10.0,68,0.00,,,0.07,665,WeatherCatV1.15B25,2013-04-17 19:47:00,
2013-04-17 15:52:00,65.5,54.2,30.11,ENE,71,9.0,9.0,67,0.00,,,0.07,405,WeatherCatV1.15B25,2013-04-17 19:52:00,
2013-04-17 15:57:00,66.0,54.7,30.11,NNE,27,2.0,7.0,67,0.00,,,0.07,625,WeatherCatV1.15B25,2013-04-17 19:57:00,
2013-04-17 16:02:00,66.3,55.0,30.10,East,89,5.0,12.0,67,0.00,,,0.07,607,WeatherCatV1.15B25,2013-04-17 20:02:00,
2013-04-17 16:07:00,66.0,55.1,30.10,NNE,30,5.0,10.0,68,0.00,,,0.07,605,WeatherCatV1.15B25,2013-04-17 20:07:00,
2013-04-17 16:12:00,66.4,55.1,30.10,NNE,18,1.0,8.0,67,0.00,,,0.07,586,WeatherCatV1.15B25,2013-04-17 20:12:00,
2013-04-17 16:17:00,66.9,55.2,30.10,NE,54,2.0,6.0,66,0.00,,,0.07,561,WeatherCatV1.15B25,2013-04-17 20:17:00,
2013-04-17 16:22:00,67.4,54.8,30.10,NNE,27,7.0,8.0,64,0.00,,,0.07,554,WeatherCatV1.15B25,2013-04-17 20:22:00,
2013-04-17 16:27:00,67.4,55.6,30.10,East,83,7.0,10.0,66,0.00,,,0.07,551,WeatherCatV1.15B25,2013-04-17 20:27:00,
2013-04-17 16:32:00,67.4,56.1,30.10,East,80,2.0,10.0,67,0.00,,,0.07,523,WeatherCatV1.15B25,2013-04-17 20:32:00,
2013-04-17 16:37:00,67.6,55.8,30.10,North,359,8.0,8.0,66,0.00,,,0.07,517,WeatherCatV1.15B25,2013-04-17 20:37:00,
2013-04-17 16:42:00,67.3,56.0,30.10,NE,38,5.0,9.0,67,0.00,,,0.07,503,WeatherCatV1.15B25,2013-04-17 20:42:00,
2013-04-17 16:47:00,67.3,55.1,30.09,NNE,28,2.0,7.0,65,0.00,,,0.07,505,WeatherCatV1.15B25,2013-04-17 20:47:00,
2013-04-17 16:52:00,67.9,56.1,30.09,NE,52,1.0,3.0,66,0.00,,,0.07,500,WeatherCatV1.15B25,2013-04-17 20:52:00,
2013-04-17 16:57:00,68.1,55.9,30.09,North,0,5.0,11.0,65,0.00,,,0.07,449,WeatherCatV1.15B25,2013-04-17 20:57:00,
2013-04-17 17:02:00,67.9,55.7,30.09,North,8,0.0,12.0,65,0.00,,,0.07,352,WeatherCatV1.15B25,2013-04-17 21:02:00,
2013-04-17 17:07:00,68.1,56.3,30.09,NE,38,1.0,7.0,66,0.00,,,0.07,201,WeatherCatV1.15B25,2013-04-17 21:07:00,
2013-04-17 17:12:00,67.8,55.2,30.09,North,3,6.0,6.0,64,0.00,,,0.07,273,WeatherCatV1.15B25,2013-04-17 21:12:00,
2013-04-17 17:17:00,67.9,55.7,30.09,NE,37,2.0,5.0,65,0.00,,,0.07,315,WeatherCatV1.15B25,2013-04-17 21:17:00,
2013-04-17 17:22:00,68.1,55.9,30.09,North,0,5.0,10.0,65,0.00,,,0.07,230,WeatherCatV1.15B25,2013-04-17 21:22:00,
2013-04-17 17:27:00,67.9,55.7,30.09,NE,42,5.0,10.0,65,0.00,,,0.07,202,WeatherCatV1.15B25,2013-04-17 21:27:00,
2013-04-17 17:32:00,67.8,54.7,30.09,North,354,7.0,8.0,63,0.00,,,0.07,202,WeatherCatV1.15B25,2013-04-17 21:32:00,
2013-04-17 17:37:00,67.6,54.5,30.09,North,3,6.0,10.0,63,0.00,,,0.07,190,WeatherCatV1.15B25,2013-04-17 21:37:00,
2013-04-17 17:42:00,67.4,54.4,30.09,North,354,3.0,11.0,63,0.00,,,0.07,192,WeatherCatV1.15B25,2013-04-17 21:42:00,
2013-04-17 17:47:00,67.4,54.8,30.09,NNW,346,5.0,10.0,64,0.00,,,0.07,171,WeatherCatV1.15B25,2013-04-17 21:47:00,
2013-04-17 17:52:00,67.4,54.8,30.09,North,359,0.0,7.0,64,0.00,,,0.07,160,WeatherCatV1.15B25,2013-04-17 21:52:00,
2013-04-17 17:57:00,67.3,55.1,30.09,North,0,3.0,7.0,65,0.00,,,0.07,153,WeatherCatV1.15B25,2013-04-17 21:57:00,
2013-04-17 18:02:00,67.3,54.7,30.09,North,359,2.0,7.0,64,0.00,,,0.07,146,WeatherCatV1.15B25,2013-04-17 22:02:00,
2013-04-17 18:07:00,67.4,54.4,30.09,North,4,2.0,4.0,63,0.00,,,0.07,150,WeatherCatV1.15B25,2013-04-17 22:07:00,
2013-04-17 18:12:00,67.4,54.8,30.09,ENE,61,0.0,0.0,64,0.00,,,0.07,148,WeatherCatV1.15B25,2013-04-17 22:12:00,
2013-04-17 18:17:00,67.6,54.5,30.09,NNE,16,0.0,2.0,63,0.00,,,0.07,139,WeatherCatV1.15B25,2013-04-17 22:17:00,
2013-04-17 18:22:00,67.4,54.4,30.09,North,3,5.0,5.0,63,0.00,,,0.07,121,WeatherCatV1.15B25,2013-04-17 22:22:00,
2013-04-17 18:27:00,67.3,53.8,30.09,North,0,0.0,5.0,62,0.00,,,0.07,111,WeatherCatV1.15B25,2013-04-17 22:27:00,
2013-04-17 18:32:00,67.3,54.3,30.10,North,359,0.0,2.0,63,0.00,,,0.07,102,WeatherCatV1.15B25,2013-04-17 22:32:00,
2013-04-17 18:37:00,67.1,54.1,30.10,North,349,4.0,6.0,63,0.00,,,0.07,91,WeatherCatV1.15B25,2013-04-17 22:37:00,
2013-04-17 18:42:00,67.1,54.1,30.10,North,350,0.0,0.0,63,0.00,,,0.07,83,WeatherCatV1.15B25,2013-04-17 22:42:00,
2013-04-17 18:47:00,67.1,54.1,30.10,North,0,0.0,2.0,63,0.00,,,0.07,77,WeatherCatV1.15B25,2013-04-17 22:47:00,
2013-04-17 18:52:00,67.1,54.1,30.10,North,0,0.0,2.0,63,0.00,,,0.07,121,WeatherCatV1.15B25,2013-04-17 22:52:00,
2013-04-17 18:57:00,67.3,54.3,30.10,North,0,0.0,0.0,63,0.00,,,0.07,130,WeatherCatV1.15B25,2013-04-17 22:57:00,
2013-04-17 19:02:00,67.4,54.4,30.10,North,0,0.0,4.0,63,0.00,,,0.07,118,WeatherCatV1.15B25,2013-04-17 23:02:00,
2013-04-17 19:07:00,67.6,54.1,30.10,North,0,0.0,2.0,62,0.00,,,0.07,102,WeatherCatV1.15B25,2013-04-17 23:07:00,
2013-04-17 19:12:00,67.8,54.3,30.10,North,353,0.0,0.0,62,0.00,,,0.07,81,WeatherCatV1.15B25,2013-04-17 23:12:00,
2013-04-17 19:17:00,67.6,54.1,30.10,North,0,0.0,5.0,62,0.00,,,0.07,81,WeatherCatV1.15B25,2013-04-17 23:17:00,
2013-04-17 19:22:00,67.4,54.4,30.10,North,0,0.0,0.0,63,0.00,,,0.07,67,WeatherCatV1.15B25,2013-04-17 23:22:00,
2013-04-17 19:27:00,67.4,54.4,30.10,North,353,0.0,5.0,63,0.00,,,0.07,48,WeatherCatV1.15B25,2013-04-17 23:27:00,
2013-04-17 19:32:00,67.1,54.5,30.10,NNE,20,0.0,3.0,64,0.00,,,0.07,33,WeatherCatV1.15B25,2013-04-17 23:32:00,
2013-04-17 19:37:00,66.8,54.6,30.10,North,359,0.0,5.0,65,0.00,,,0.07,23,WeatherCatV1.15B25,2013-04-17 23:37:00,
2013-04-17 19:42:00,66.6,54.5,30.10,North,354,1.0,5.0,65,0.00,,,0.07,16,WeatherCatV1.15B25,2013-04-17 23:42:00,
2013-04-17 19:47:00,66.4,54.7,30.11,NNW,339,3.0,7.0,66,0.00,,,0.07,12,WeatherCatV1.15B25,2013-04-17 23:47:00,
2013-04-17 19:52:00,66.3,54.2,30.11,North,350,5.0,7.0,65,0.00,,,0.07,7,WeatherCatV1.15B25,2013-04-17 23:52:00,
2013-04-17 19:57:00,66.1,54.0,30.11,NNW,343,5.0,6.0,65,0.00,,,0.07,0,WeatherCatV1.15B25,2013-04-17 23:57:00,
2013-04-17 20:02:00,66.1,54.4,30.11,North,352,1.0,6.0,66,0.00,,,0.07,0,WeatherCatV1.15B25,2013-04-18 00:02:00,
2013-04-17 20:07:00,66.1,54.0,30.11,North,352,1.0,7.0,65,0.00,,,0.07,0,WeatherCatV1.15B25,2013-04-18 00:07:00,
2013-04-17 20:12:00,66.1,54.4,30.11,North,352,0.0,0.0,66,0.00,,,0.07,0,WeatherCatV1.15B25,2013-04-18 00:12:00,
2013-04-17 20:17:00,66.1,54.4,30.11,North,359,0.0,1.0,66,0.00,,,0.07,0,WeatherCatV1.15B25,2013-04-18 00:17:00,
2013-04-17 20:22:00,66.1,54.4,30.11,North,359,2.0,2.0,66,0.00,,,0.07,0,WeatherCatV1.15B25,2013-04-18 00:22:00,
2013-04-17 20:27:00,66.0,54.3,30.11,North,359,0.0,2.0,66,0.00,,,0.07,0,WeatherCatV1.15B25,2013-04-18 00:27:00,
2013-04-17 20:32:00,65.8,54.1,30.10,North,4,0.0,3.0,66,0.00,,,0.07,0,WeatherCatV1.15B25,2013-04-18 00:32:00,
2013-04-17 20:37:00,66.0,53.9,30.10,North,4,0.0,0.0,65,0.00,,,0.07,0,WeatherCatV1.15B25,2013-04-18 00:37:00,
2013-04-17 20:42:00,66.0,53.9,30.10,North,11,0.0,4.0,65,0.00,,,0.07,0,WeatherCatV1.15B25,2013-04-18 00:42:00,
2013-04-17 20:47:00,65.8,54.1,30.11,North,10,0.0,2.0,66,0.00,,,0.07,0,WeatherCatV1.15B25,2013-04-18 00:47:00,
2013-04-17 20:52:00,65.5,54.2,30.11,North,8,0.0,4.0,67,0.00,,,0.07,0,WeatherCatV1.15B25,2013-04-18 00:52:00,
2013-04-17 20:57:00,65.3,54.5,30.11,North,8,0.0,4.0,68,0.00,,,0.07,0,WeatherCatV1.15B25,2013-04-18 00:57:00,
2013-04-17 21:02:00,65.2,54.8,30.11,North,8,0.0,0.0,69,0.00,,,0.07,0,WeatherCatV1.15B25,2013-04-18 01:02:00,
2013-04-17 21:07:00,65.2,54.8,30.11,North,8,0.0,1.0,69,0.00,,,0.07,0,WeatherCatV1.15B25,2013-04-18 01:07:00,
2013-04-17 21:12:00,65.0,54.6,30.11,North,7,0.0,0.0,69,0.00,,,0.07,0,WeatherCatV1.15B25,2013-04-18 01:12:00,
2013-04-17 21:17:00,65.0,54.6,30.11,North,7,0.0,1.0,69,0.00,,,0.07,0,WeatherCatV1.15B25,2013-04-18 01:17:00,
2013-04-17 21:22:00,64.8,54.4,30.11,North,0,0.0,5.0,69,0.00,,,0.07,0,WeatherCatV1.15B25,2013-04-18 01:22:00,
2013-04-17 21:27:00,64.7,54.3,30.11,North,0,0.0,4.0,69,0.00,,,0.07,0,WeatherCatV1.15B25,2013-04-18 01:27:00,
2013-04-17 21:32:00,64.7,54.3,30.12,North,0,1.0,2.0,69,0.00,,,0.07,0,WeatherCatV1.15B25,2013-04-18 01:32:00,
2013-04-17 21:37:00,64.7,54.3,30.12,North,1,0.0,3.0,69,0.00,,,0.07,0,WeatherCatV1.15B25,2013-04-18 01:37:00,
2013-04-17 21:42:00,64.5,53.7,30.12,North,1,0.0,0.0,68,0.00,,,0.07,0,WeatherCatV1.15B25,2013-04-18 01:42:00,
2013-04-17 21:47:00,64.5,53.7,30.12,North,1,0.0,0.0,68,0.00,,,0.07,0,WeatherCatV1.15B25,2013-04-18 01:47:00,
2013-04-17 21:52:00,64.5,53.7,30.12,North,1,0.0,0.0,68,0.00,,,0.07,0,WeatherCatV1.15B25,2013-04-18 01:52:00,
2013-04-17 21:57:00,64.3,53.9,30.12,North,1,0.0,0.0,69,0.00,,,0.07,0,WeatherCatV1.15B25,2013-04-18 01:57:00,
2013-04-17 22:02:00,64.3,53.9,30.13,North,1,0.0,0.0,69,0.00,,,0.07,0,WeatherCatV1.15B25,2013-04-18 02:02:00,
2013-04-17 22:07:00,64.2,53.8,30.13,NNE,30,0.0,0.0,69,0.00,,,0.07,0,WeatherCatV1.15B25,2013-04-18 02:07:00,
2013-04-17 22:12:00,64.2,53.8,30.13,NNE,30,0.0,0.0,69,0.00,,,0.07,0,WeatherCatV1.15B25,2013-04-18 02:12:00,
2013-04-17 22:17:00,64.2,53.8,30.13,NNE,30,0.0,0.0,69,0.00,,,0.07,0,WeatherCatV1.15B25,2013-04-18 02:17:00,
2013-04-17 22:22:00,64.2,53.8,30.13,NNE,30,0.0,0.0,69,0.00,,,0.07,0,WeatherCatV1.15B25,2013-04-18 02:22:00,
2013-04-17 22:27:00,64.2,53.4,30.13,NE,34,1.0,1.0,68,0.00,,,0.07,0,WeatherCatV1.15B25,2013-04-18 02:27:00,
2013-04-17 22:32:00,64.2,53.4,30.13,NNE,32,0.0,0.0,68,0.00,,,0.07,0,WeatherCatV1.15B25,2013-04-18 02:32:00,
2013-04-17 22:38:00,64.0,53.2,30.13,NE,34,0.0,0.0,68,0.00,,,0.07,0,WeatherCatV1.15B25,2013-04-18 02:38:00,
2013-04-17 22:43:00,64.2,53.4,30.13,NE,34,0.0,0.0,68,0.00,,,0.07,0,WeatherCatV1.15B25,2013-04-18 02:43:00,
2013-04-17 22:48:00,64.3,53.1,30.13,NE,34,0.0,0.0,67,0.00,,,0.07,0,WeatherCatV1.15B25,2013-04-18 02:48:00,
2013-04-17 22:53:00,64.3,53.1,30.13,NE,34,0.0,0.0,67,0.00,,,0.07,0,WeatherCatV1.15B25,2013-04-18 02:53:00,
2013-04-17 22:58:00,64.3,53.5,30.13,NE,34,0.0,0.0,68,0.00,,,0.07,0,WeatherCatV1.15B25,2013-04-18 02:58:00,
2013-04-17 23:03:00,64.3,53.5,30.13,NE,34,0.0,0.0,68,0.00,,,0.07,0,WeatherCatV1.15B25,2013-04-18 03:03:00,
2013-04-17 23:08:00,64.3,53.5,30.13,NE,34,0.0,0.0,68,0.00,,,0.07,0,WeatherCatV1.15B25,2013-04-18 03:08:00,
2013-04-17 23:13:00,64.0,53.2,30.13,NNE,32,0.0,2.0,68,0.00,,,0.07,0,WeatherCatV1.15B25,2013-04-18 03:13:00,
2013-04-17 23:18:00,64.0,53.6,30.14,NNE,32,0.0,0.0,69,0.00,,,0.07,0,WeatherCatV1.15B25,2013-04-18 03:18:00,
2013-04-17 23:23:00,64.3,53.9,30.14,NNE,32,0.0,0.0,69,0.00,,,0.07,0,WeatherCatV1.15B25,2013-04-18 03:23:00,
2013-04-17 23:28:00,64.3,53.9,30.14,NNE,32,0.0,0.0,69,0.00,,,0.07,0,WeatherCatV1.15B25,2013-04-18 03:28:00,
2013-04-17 23:33:00,64.2,53.8,30.14,NNE,32,0.0,0.0,69,0.00,,,0.07,0,WeatherCatV1.15B25,2013-04-18 03:33:00,
2013-04-17 23:38:00,63.9,54.3,30.14,NE,34,0.0,0.0,71,0.00,,,0.07,0,WeatherCatV1.15B25,2013-04-18 03:38:00,
2013-04-17 23:43:00,63.9,54.7,30.14,ESE,107,0.0,0.0,72,0.00,,,0.07,0,WeatherCatV1.15B25,2013-04-18 03:43:00,
2013-04-17 23:48:00,64.0,54.8,30.13,ESE,107,0.0,1.0,72,0.00,,,0.07,0,WeatherCatV1.15B25,2013-04-18 03:48:00,
2013-04-17 23:53:00,64.0,54.8,30.13,ESE,107,0.0,0.0,72,0.00,,,0.07,0,WeatherCatV1.15B25,2013-04-18 03:53:00,
2013-04-17 23:58:00,63.9,54.7,30.13,ESE,102,0.0,0.0,72,0.00,,,0.07,0,WeatherCatV1.15B25,2013-04-18 03:58:00,